sensor_id;sensor_type;location;lat;lon;timestamp;P1;durP1;ratioP1;P2;durP2;ratioP2
39094;SDS011;24840;47.508;19.376;2024-01-15T00:00:45;36.23;;;23.30;;
39094;SDS011;24840;47.508;19.376;2024-01-15T00:03:11;34.10;;;21.47;;
39094;SDS011;24840;47.508;19.376;2024-01-15T00:05:39;33.57;;;21.47;;
39094;SDS011;24840;47.508;19.376;2024-01-15T00:08:05;34.23;;;23.33;;
39094;SDS011;24840;47.508;19.376;2024-01-15T00:10:32;32.77;;;22.03;;
39094;SDS011;24840;47.508;19.376;2024-01-15T00:12:58;35.63;;;22.63;;
39094;SDS011;24840;47.508;19.376;2024-01-15T00:15:24;32.23;;;20.43;;
39094;SDS011;24840;47.508;19.376;2024-01-15T00:17:51;36.47;;;22.57;;
39094;SDS011;24840;47.508;19.376;2024-01-15T00:20:17;43.10;;;25.07;;
39094;SDS011;24840;47.508;19.376;2024-01-15T00:22:43;47.63;;;29.83;;
39094;SDS011;24840;47.508;19.376;2024-01-15T00:25:13;57.23;;;34.63;;
39094;SDS011;24840;47.508;19.376;2024-01-15T00:27:39;50.33;;;30.73;;
39094;SDS011;24840;47.508;19.376;2024-01-15T00:30:05;44.23;;;27.63;;
39094;SDS011;24840;47.508;19.376;2024-01-15T00:32:31;43.53;;;26.87;;
39094;SDS011;24840;47.508;19.376;2024-01-15T00:34:57;41.73;;;24.63;;
39094;SDS011;24840;47.508;19.376;2024-01-15T00:37:23;41.07;;;24.53;;
39094;SDS011;24840;47.508;19.376;2024-01-15T00:39:49;39.77;;;24.13;;
39094;SDS011;24840;47.508;19.376;2024-01-15T00:42:15;31.80;;;22.43;;
39094;SDS011;24840;47.508;19.376;2024-01-15T00:44:42;39.57;;;25.40;;
39094;SDS011;24840;47.508;19.376;2024-01-15T00:47:10;37.27;;;24.03;;
39094;SDS011;24840;47.508;19.376;2024-01-15T00:49:36;42.37;;;25.13;;
39094;SDS011;24840;47.508;19.376;2024-01-15T00:52:02;46.33;;;27.33;;
39094;SDS011;24840;47.508;19.376;2024-01-15T00:54:28;51.83;;;29.30;;
39094;SDS011;24840;47.508;19.376;2024-01-15T00:56:54;42.67;;;25.83;;
39094;SDS011;24840;47.508;19.376;2024-01-15T00:59:20;56.17;;;31.43;;
39094;SDS011;24840;47.508;19.376;2024-01-15T01:01:46;68.20;;;36.83;;
39094;SDS011;24840;47.508;19.376;2024-01-15T01:04:12;59.90;;;35.00;;
39094;SDS011;24840;47.508;19.376;2024-01-15T01:06:39;59.00;;;33.13;;
39094;SDS011;24840;47.508;19.376;2024-01-15T01:09:05;52.40;;;30.03;;
39094;SDS011;24840;47.508;19.376;2024-01-15T01:11:32;47.90;;;30.40;;
39094;SDS011;24840;47.508;19.376;2024-01-15T01:13:57;50.13;;;30.80;;
39094;SDS011;24840;47.508;19.376;2024-01-15T01:16:24;54.63;;;33.20;;
39094;SDS011;24840;47.508;19.376;2024-01-15T01:18:50;77.60;;;43.67;;
39094;SDS011;24840;47.508;19.376;2024-01-15T01:21:16;81.83;;;44.67;;
39094;SDS011;24840;47.508;19.376;2024-01-15T01:23:42;71.03;;;42.10;;
39094;SDS011;24840;47.508;19.376;2024-01-15T01:26:08;78.17;;;42.67;;
39094;SDS011;24840;47.508;19.376;2024-01-15T01:28:34;69.43;;;42.70;;
39094;SDS011;24840;47.508;19.376;2024-01-15T01:31:00;71.53;;;42.63;;
39094;SDS011;24840;47.508;19.376;2024-01-15T01:33:26;70.50;;;42.53;;
39094;SDS011;24840;47.508;19.376;2024-01-15T01:35:52;68.03;;;42.40;;
39094;SDS011;24840;47.508;19.376;2024-01-15T01:38:18;63.33;;;37.03;;
39094;SDS011;24840;47.508;19.376;2024-01-15T01:40:44;63.47;;;38.83;;
39094;SDS011;24840;47.508;19.376;2024-01-15T01:43:10;61.70;;;38.07;;
39094;SDS011;24840;47.508;19.376;2024-01-15T01:45:36;53.97;;;34.20;;
39094;SDS011;24840;47.508;19.376;2024-01-15T01:48:02;63.00;;;39.80;;
39094;SDS011;24840;47.508;19.376;2024-01-15T01:50:29;60.47;;;38.23;;
39094;SDS011;24840;47.508;19.376;2024-01-15T01:52:56;63.57;;;39.03;;
39094;SDS011;24840;47.508;19.376;2024-01-15T01:55:22;55.73;;;36.43;;
39094;SDS011;24840;47.508;19.376;2024-01-15T01:57:50;50.03;;;33.57;;
39094;SDS011;24840;47.508;19.376;2024-01-15T02:00:16;52.00;;;35.43;;
39094;SDS011;24840;47.508;19.376;2024-01-15T02:02:43;55.47;;;33.07;;
39094;SDS011;24840;47.508;19.376;2024-01-15T02:05:09;60.90;;;35.47;;
39094;SDS011;24840;47.508;19.376;2024-01-15T02:07:35;48.30;;;30.83;;
39094;SDS011;24840;47.508;19.376;2024-01-15T02:10:01;57.00;;;33.40;;
39094;SDS011;24840;47.508;19.376;2024-01-15T02:12:27;49.37;;;33.43;;
39094;SDS011;24840;47.508;19.376;2024-01-15T02:14:53;53.40;;;33.40;;
39094;SDS011;24840;47.508;19.376;2024-01-15T02:17:19;40.10;;;27.57;;
39094;SDS011;24840;47.508;19.376;2024-01-15T02:19:45;38.77;;;24.30;;
39094;SDS011;24840;47.508;19.376;2024-01-15T02:22:11;48.67;;;28.30;;
39094;SDS011;24840;47.508;19.376;2024-01-15T02:24:37;51.23;;;29.97;;
39094;SDS011;24840;47.508;19.376;2024-01-15T02:27:03;44.73;;;27.13;;
39094;SDS011;24840;47.508;19.376;2024-01-15T02:29:30;45.33;;;30.53;;
39094;SDS011;24840;47.508;19.376;2024-01-15T02:31:56;45.13;;;27.33;;
39094;SDS011;24840;47.508;19.376;2024-01-15T02:34:21;45.47;;;27.97;;
39094;SDS011;24840;47.508;19.376;2024-01-15T02:36:47;46.20;;;29.37;;
39094;SDS011;24840;47.508;19.376;2024-01-15T02:39:14;44.30;;;28.80;;
39094;SDS011;24840;47.508;19.376;2024-01-15T02:41:40;51.50;;;33.30;;
39094;SDS011;24840;47.508;19.376;2024-01-15T02:44:06;44.90;;;29.17;;
39094;SDS011;24840;47.508;19.376;2024-01-15T02:46:32;46.53;;;28.53;;
39094;SDS011;24840;47.508;19.376;2024-01-15T02:48:58;40.77;;;27.37;;
39094;SDS011;24840;47.508;19.376;2024-01-15T02:51:24;46.80;;;29.27;;
39094;SDS011;24840;47.508;19.376;2024-01-15T02:53:50;51.63;;;31.07;;
39094;SDS011;24840;47.508;19.376;2024-01-15T02:56:16;42.13;;;28.73;;
39094;SDS011;24840;47.508;19.376;2024-01-15T02:58:42;58.13;;;34.17;;
39094;SDS011;24840;47.508;19.376;2024-01-15T03:01:08;66.73;;;38.90;;
39094;SDS011;24840;47.508;19.376;2024-01-15T03:03:34;50.70;;;32.73;;
39094;SDS011;24840;47.508;19.376;2024-01-15T03:06:01;51.43;;;30.70;;
39094;SDS011;24840;47.508;19.376;2024-01-15T03:08:27;38.73;;;26.60;;
39094;SDS011;24840;47.508;19.376;2024-01-15T03:10:54;46.43;;;26.07;;
39094;SDS011;24840;47.508;19.376;2024-01-15T03:13:20;36.67;;;24.50;;
39094;SDS011;24840;47.508;19.376;2024-01-15T03:15:46;41.87;;;25.97;;
39094;SDS011;24840;47.508;19.376;2024-01-15T03:18:12;41.53;;;26.93;;
39094;SDS011;24840;47.508;19.376;2024-01-15T03:20:38;41.57;;;25.50;;
39094;SDS011;24840;47.508;19.376;2024-01-15T03:23:04;40.60;;;25.73;;
39094;SDS011;24840;47.508;19.376;2024-01-15T03:25:30;38.53;;;24.63;;
39094;SDS011;24840;47.508;19.376;2024-01-15T03:27:56;42.33;;;25.13;;
39094;SDS011;24840;47.508;19.376;2024-01-15T03:30:22;38.23;;;25.13;;
39094;SDS011;24840;47.508;19.376;2024-01-15T03:32:48;37.13;;;23.47;;
39094;SDS011;24840;47.508;19.376;2024-01-15T03:35:15;40.67;;;23.43;;
39094;SDS011;24840;47.508;19.376;2024-01-15T03:37:41;41.53;;;24.00;;
39094;SDS011;24840;47.508;19.376;2024-01-15T03:40:07;32.50;;;22.63;;
39094;SDS011;24840;47.508;19.376;2024-01-15T03:42:33;37.70;;;24.10;;
39094;SDS011;24840;47.508;19.376;2024-01-15T03:44:59;37.43;;;24.23;;
39094;SDS011;24840;47.508;19.376;2024-01-15T03:47:26;37.03;;;23.37;;
39094;SDS011;24840;47.508;19.376;2024-01-15T03:49:51;33.73;;;22.93;;
39094;SDS011;24840;47.508;19.376;2024-01-15T03:52:17;45.47;;;24.83;;
39094;SDS011;24840;47.508;19.376;2024-01-15T03:54:43;38.87;;;25.20;;
39094;SDS011;24840;47.508;19.376;2024-01-15T03:57:10;36.47;;;23.00;;
39094;SDS011;24840;47.508;19.376;2024-01-15T03:59:35;39.43;;;24.50;;
39094;SDS011;24840;47.508;19.376;2024-01-15T04:02:01;40.97;;;25.73;;
39094;SDS011;24840;47.508;19.376;2024-01-15T04:04:29;41.93;;;27.20;;
39094;SDS011;24840;47.508;19.376;2024-01-15T04:06:55;41.63;;;26.07;;
39094;SDS011;24840;47.508;19.376;2024-01-15T04:09:21;45.13;;;26.67;;
39094;SDS011;24840;47.508;19.376;2024-01-15T04:11:47;48.53;;;29.60;;
39094;SDS011;24840;47.508;19.376;2024-01-15T04:14:13;48.60;;;29.00;;
39094;SDS011;24840;47.508;19.376;2024-01-15T04:16:39;43.50;;;28.40;;
39094;SDS011;24840;47.508;19.376;2024-01-15T04:19:06;42.17;;;27.93;;
39094;SDS011;24840;47.508;19.376;2024-01-15T04:21:32;40.90;;;27.20;;
39094;SDS011;24840;47.508;19.376;2024-01-15T04:23:58;43.53;;;27.03;;
39094;SDS011;24840;47.508;19.376;2024-01-15T04:26:24;46.37;;;28.23;;
39094;SDS011;24840;47.508;19.376;2024-01-15T04:28:50;38.80;;;25.83;;
39094;SDS011;24840;47.508;19.376;2024-01-15T04:31:26;39.43;;;26.30;;
39094;SDS011;24840;47.508;19.376;2024-01-15T04:33:52;42.00;;;28.10;;
39094;SDS011;24840;47.508;19.376;2024-01-15T04:36:18;45.60;;;28.73;;
39094;SDS011;24840;47.508;19.376;2024-01-15T04:38:44;38.80;;;26.30;;
39094;SDS011;24840;47.508;19.376;2024-01-15T04:41:13;42.50;;;25.83;;
39094;SDS011;24840;47.508;19.376;2024-01-15T04:43:39;42.57;;;25.80;;
39094;SDS011;24840;47.508;19.376;2024-01-15T04:46:06;42.73;;;27.53;;
39094;SDS011;24840;47.508;19.376;2024-01-15T04:48:32;42.20;;;27.70;;
39094;SDS011;24840;47.508;19.376;2024-01-15T04:50:58;52.80;;;31.17;;
39094;SDS011;24840;47.508;19.376;2024-01-15T04:53:25;47.20;;;29.13;;
39094;SDS011;24840;47.508;19.376;2024-01-15T04:55:51;47.70;;;28.40;;
39094;SDS011;24840;47.508;19.376;2024-01-15T04:58:17;54.17;;;30.60;;
39094;SDS011;24840;47.508;19.376;2024-01-15T05:00:43;58.63;;;39.10;;
39094;SDS011;24840;47.508;19.376;2024-01-15T05:03:09;59.73;;;35.80;;
39094;SDS011;24840;47.508;19.376;2024-01-15T05:05:35;47.87;;;31.90;;
39094;SDS011;24840;47.508;19.376;2024-01-15T05:08:01;53.77;;;33.60;;
39094;SDS011;24840;47.508;19.376;2024-01-15T05:10:27;65.87;;;34.37;;
39094;SDS011;24840;47.508;19.376;2024-01-15T05:12:53;47.97;;;30.30;;
39094;SDS011;24840;47.508;19.376;2024-01-15T05:15:19;45.87;;;30.37;;
39094;SDS011;24840;47.508;19.376;2024-01-15T05:17:45;38.33;;;26.97;;
39094;SDS011;24840;47.508;19.376;2024-01-15T05:20:11;48.37;;;29.87;;
39094;SDS011;24840;47.508;19.376;2024-01-15T05:22:37;39.47;;;27.67;;
39094;SDS011;24840;47.508;19.376;2024-01-15T05:25:03;41.50;;;27.77;;
39094;SDS011;24840;47.508;19.376;2024-01-15T05:27:29;43.50;;;28.30;;
39094;SDS011;24840;47.508;19.376;2024-01-15T05:29:55;47.20;;;27.63;;
39094;SDS011;24840;47.508;19.376;2024-01-15T05:32:21;53.40;;;28.27;;
39094;SDS011;24840;47.508;19.376;2024-01-15T05:34:48;45.57;;;27.70;;
39094;SDS011;24840;47.508;19.376;2024-01-15T05:37:14;49.97;;;30.07;;
39094;SDS011;24840;47.508;19.376;2024-01-15T05:39:40;48.43;;;31.37;;
39094;SDS011;24840;47.508;19.376;2024-01-15T05:42:06;44.77;;;29.80;;
39094;SDS011;24840;47.508;19.376;2024-01-15T05:44:32;50.83;;;32.80;;
39094;SDS011;24840;47.508;19.376;2024-01-15T05:46:58;56.00;;;31.77;;
39094;SDS011;24840;47.508;19.376;2024-01-15T05:49:24;51.63;;;32.27;;
39094;SDS011;24840;47.508;19.376;2024-01-15T05:51:51;48.37;;;32.00;;
39094;SDS011;24840;47.508;19.376;2024-01-15T05:54:18;50.83;;;33.30;;
39094;SDS011;24840;47.508;19.376;2024-01-15T05:56:44;58.13;;;38.70;;
39094;SDS011;24840;47.508;19.376;2024-01-15T05:59:11;54.90;;;36.27;;
39094;SDS011;24840;47.508;19.376;2024-01-15T06:01:37;52.43;;;37.10;;
39094;SDS011;24840;47.508;19.376;2024-01-15T06:04:03;62.77;;;41.70;;
39094;SDS011;24840;47.508;19.376;2024-01-15T06:06:29;54.37;;;35.90;;
39094;SDS011;24840;47.508;19.376;2024-01-15T06:08:55;52.03;;;32.20;;
39094;SDS011;24840;47.508;19.376;2024-01-15T06:11:21;47.70;;;32.20;;
39094;SDS011;24840;47.508;19.376;2024-01-15T06:13:47;52.53;;;33.23;;
39094;SDS011;24840;47.508;19.376;2024-01-15T06:16:16;53.47;;;31.53;;
39094;SDS011;24840;47.508;19.376;2024-01-15T06:18:44;46.47;;;32.93;;
39094;SDS011;24840;47.508;19.376;2024-01-15T06:21:10;51.20;;;33.30;;
39094;SDS011;24840;47.508;19.376;2024-01-15T06:23:37;55.77;;;32.57;;
39094;SDS011;24840;47.508;19.376;2024-01-15T06:26:04;50.97;;;32.33;;
39094;SDS011;24840;47.508;19.376;2024-01-15T06:28:30;47.40;;;30.50;;
39094;SDS011;24840;47.508;19.376;2024-01-15T06:30:56;50.50;;;32.10;;
39094;SDS011;24840;47.508;19.376;2024-01-15T06:33:23;47.93;;;32.87;;
39094;SDS011;24840;47.508;19.376;2024-01-15T06:35:49;50.77;;;33.47;;
39094;SDS011;24840;47.508;19.376;2024-01-15T06:38:16;57.47;;;37.13;;
39094;SDS011;24840;47.508;19.376;2024-01-15T06:40:42;68.70;;;43.80;;
39094;SDS011;24840;47.508;19.376;2024-01-15T06:43:13;51.77;;;33.80;;
39094;SDS011;24840;47.508;19.376;2024-01-15T06:45:39;52.70;;;34.07;;
39094;SDS011;24840;47.508;19.376;2024-01-15T06:48:05;62.50;;;38.30;;
39094;SDS011;24840;47.508;19.376;2024-01-15T06:50:32;51.47;;;34.00;;
39094;SDS011;24840;47.508;19.376;2024-01-15T06:52:58;50.80;;;31.93;;
39094;SDS011;24840;47.508;19.376;2024-01-15T06:55:24;52.17;;;33.00;;
39094;SDS011;24840;47.508;19.376;2024-01-15T06:57:51;50.07;;;32.17;;
39094;SDS011;24840;47.508;19.376;2024-01-15T07:00:17;55.13;;;33.77;;
39094;SDS011;24840;47.508;19.376;2024-01-15T07:02:44;75.83;;;35.53;;
39094;SDS011;24840;47.508;19.376;2024-01-15T07:05:10;56.63;;;33.13;;
39094;SDS011;24840;47.508;19.376;2024-01-15T07:07:36;53.23;;;30.53;;
39094;SDS011;24840;47.508;19.376;2024-01-15T07:10:03;47.17;;;32.47;;
39094;SDS011;24840;47.508;19.376;2024-01-15T07:12:29;53.57;;;35.23;;
39094;SDS011;24840;47.508;19.376;2024-01-15T07:14:58;51.07;;;33.73;;
39094;SDS011;24840;47.508;19.376;2024-01-15T07:17:24;49.53;;;32.77;;
39094;SDS011;24840;47.508;19.376;2024-01-15T07:19:50;50.67;;;31.13;;
39094;SDS011;24840;47.508;19.376;2024-01-15T07:22:16;49.17;;;31.60;;
39094;SDS011;24840;47.508;19.376;2024-01-15T07:24:42;52.43;;;33.63;;
39094;SDS011;24840;47.508;19.376;2024-01-15T07:27:09;51.93;;;32.00;;
39094;SDS011;24840;47.508;19.376;2024-01-15T07:29:35;51.17;;;32.33;;
39094;SDS011;24840;47.508;19.376;2024-01-15T07:32:02;51.07;;;32.93;;
39094;SDS011;24840;47.508;19.376;2024-01-15T07:34:28;52.47;;;35.63;;
39094;SDS011;24840;47.508;19.376;2024-01-15T07:36:55;48.43;;;31.97;;
39094;SDS011;24840;47.508;19.376;2024-01-15T07:39:21;52.20;;;33.37;;
39094;SDS011;24840;47.508;19.376;2024-01-15T07:41:48;48.37;;;31.97;;
39094;SDS011;24840;47.508;19.376;2024-01-15T07:44:14;47.17;;;33.03;;
39094;SDS011;24840;47.508;19.376;2024-01-15T07:46:43;47.30;;;32.43;;
39094;SDS011;24840;47.508;19.376;2024-01-15T07:49:10;53.23;;;34.67;;
39094;SDS011;24840;47.508;19.376;2024-01-15T07:51:37;50.77;;;32.77;;
39094;SDS011;24840;47.508;19.376;2024-01-15T07:54:05;51.70;;;32.70;;
39094;SDS011;24840;47.508;19.376;2024-01-15T07:56:31;51.17;;;33.40;;
39094;SDS011;24840;47.508;19.376;2024-01-15T07:58:57;51.37;;;33.97;;
39094;SDS011;24840;47.508;19.376;2024-01-15T08:01:23;53.33;;;36.87;;
39094;SDS011;24840;47.508;19.376;2024-01-15T08:03:49;53.57;;;35.60;;
39094;SDS011;24840;47.508;19.376;2024-01-15T08:06:15;56.67;;;36.87;;
39094;SDS011;24840;47.508;19.376;2024-01-15T08:08:42;53.43;;;36.33;;
39094;SDS011;24840;47.508;19.376;2024-01-15T08:11:08;58.80;;;35.33;;
39094;SDS011;24840;47.508;19.376;2024-01-15T08:13:34;56.07;;;36.17;;
39094;SDS011;24840;47.508;19.376;2024-01-15T08:16:00;55.33;;;37.27;;
39094;SDS011;24840;47.508;19.376;2024-01-15T08:18:27;54.47;;;35.90;;
39094;SDS011;24840;47.508;19.376;2024-01-15T08:20:53;58.00;;;36.00;;
39094;SDS011;24840;47.508;19.376;2024-01-15T08:23:19;59.70;;;36.20;;
39094;SDS011;24840;47.508;19.376;2024-01-15T08:25:45;54.97;;;35.03;;
39094;SDS011;24840;47.508;19.376;2024-01-15T08:28:11;62.47;;;37.50;;
39094;SDS011;24840;47.508;19.376;2024-01-15T08:30:37;55.03;;;36.40;;
39094;SDS011;24840;47.508;19.376;2024-01-15T08:33:03;61.20;;;39.37;;
39094;SDS011;24840;47.508;19.376;2024-01-15T08:35:29;54.60;;;35.53;;
39094;SDS011;24840;47.508;19.376;2024-01-15T08:37:55;63.20;;;36.80;;
39094;SDS011;24840;47.508;19.376;2024-01-15T08:40:23;59.17;;;37.27;;
39094;SDS011;24840;47.508;19.376;2024-01-15T08:42:49;54.30;;;35.93;;
39094;SDS011;24840;47.508;19.376;2024-01-15T08:45:15;54.57;;;36.73;;
39094;SDS011;24840;47.508;19.376;2024-01-15T08:47:41;54.20;;;35.90;;
39094;SDS011;24840;47.508;19.376;2024-01-15T08:50:07;54.40;;;37.40;;
39094;SDS011;24840;47.508;19.376;2024-01-15T08:52:35;58.33;;;38.33;;
39094;SDS011;24840;47.508;19.376;2024-01-15T08:55:02;55.20;;;37.80;;
39094;SDS011;24840;47.508;19.376;2024-01-15T08:57:29;66.77;;;41.27;;
39094;SDS011;24840;47.508;19.376;2024-01-15T08:59:55;53.13;;;35.93;;
39094;SDS011;24840;47.508;19.376;2024-01-15T09:02:21;49.13;;;34.37;;
39094;SDS011;24840;47.508;19.376;2024-01-15T09:04:47;52.47;;;33.67;;
39094;SDS011;24840;47.508;19.376;2024-01-15T09:07:13;49.53;;;32.47;;
39094;SDS011;24840;47.508;19.376;2024-01-15T09:09:39;42.27;;;29.30;;
39094;SDS011;24840;47.508;19.376;2024-01-15T09:12:07;52.27;;;31.53;;
39094;SDS011;24840;47.508;19.376;2024-01-15T09:14:33;47.30;;;31.73;;
39094;SDS011;24840;47.508;19.376;2024-01-15T09:17:00;58.63;;;31.87;;
39094;SDS011;24840;47.508;19.376;2024-01-15T09:19:26;43.93;;;28.77;;
39094;SDS011;24840;47.508;19.376;2024-01-15T09:21:52;43.67;;;27.43;;
39094;SDS011;24840;47.508;19.376;2024-01-15T09:24:18;50.57;;;27.43;;
39094;SDS011;24840;47.508;19.376;2024-01-15T09:26:45;36.83;;;25.83;;
39094;SDS011;24840;47.508;19.376;2024-01-15T09:29:11;39.40;;;24.87;;
39094;SDS011;24840;47.508;19.376;2024-01-15T09:31:38;37.03;;;23.30;;
39094;SDS011;24840;47.508;19.376;2024-01-15T09:34:04;39.30;;;21.30;;
39094;SDS011;24840;47.508;19.376;2024-01-15T09:36:31;32.70;;;20.17;;
39094;SDS011;24840;47.508;19.376;2024-01-15T09:38:57;27.23;;;18.97;;
39094;SDS011;24840;47.508;19.376;2024-01-15T09:41:23;22.03;;;16.20;;
39094;SDS011;24840;47.508;19.376;2024-01-15T09:43:50;23.80;;;17.30;;
39094;SDS011;24840;47.508;19.376;2024-01-15T09:46:17;22.67;;;16.87;;
39094;SDS011;24840;47.508;19.376;2024-01-15T09:48:43;24.60;;;15.83;;
39094;SDS011;24840;47.508;19.376;2024-01-15T09:51:09;26.87;;;14.10;;
39094;SDS011;24840;47.508;19.376;2024-01-15T09:53:35;19.23;;;12.47;;
39094;SDS011;24840;47.508;19.376;2024-01-15T09:56:02;20.50;;;12.27;;
39094;SDS011;24840;47.508;19.376;2024-01-15T09:58:28;18.47;;;11.90;;
39094;SDS011;24840;47.508;19.376;2024-01-15T10:00:55;15.20;;;10.97;;
39094;SDS011;24840;47.508;19.376;2024-01-15T10:03:22;21.03;;;9.33;;
39094;SDS011;24840;47.508;19.376;2024-01-15T10:05:48;15.93;;;9.80;;
39094;SDS011;24840;47.508;19.376;2024-01-15T10:08:16;33.23;;;10.23;;
39094;SDS011;24840;47.508;19.376;2024-01-15T10:10:42;15.33;;;9.10;;
39094;SDS011;24840;47.508;19.376;2024-01-15T10:13:08;16.93;;;9.40;;
39094;SDS011;24840;47.508;19.376;2024-01-15T10:15:34;15.73;;;9.80;;
39094;SDS011;24840;47.508;19.376;2024-01-15T10:18:04;13.87;;;8.70;;
39094;SDS011;24840;47.508;19.376;2024-01-15T10:20:31;15.47;;;7.97;;
39094;SDS011;24840;47.508;19.376;2024-01-15T10:22:58;14.60;;;9.10;;
39094;SDS011;24840;47.508;19.376;2024-01-15T10:25:24;16.70;;;7.83;;
39094;SDS011;24840;47.508;19.376;2024-01-15T10:28:03;11.77;;;7.00;;
39094;SDS011;24840;47.508;19.376;2024-01-15T10:30:30;13.13;;;7.87;;
39094;SDS011;24840;47.508;19.376;2024-01-15T10:33:01;12.27;;;8.27;;
39094;SDS011;24840;47.508;19.376;2024-01-15T10:35:30;10.33;;;7.50;;
39094;SDS011;24840;47.508;19.376;2024-01-15T10:37:57;12.13;;;8.40;;
39094;SDS011;24840;47.508;19.376;2024-01-15T10:40:23;13.73;;;8.20;;
39094;SDS011;24840;47.508;19.376;2024-01-15T10:42:49;11.20;;;7.30;;
39094;SDS011;24840;47.508;19.376;2024-01-15T10:45:15;12.37;;;6.77;;
39094;SDS011;24840;47.508;19.376;2024-01-15T10:47:42;14.10;;;7.23;;
39094;SDS011;24840;47.508;19.376;2024-01-15T10:50:08;27.15;;;8.52;;
39094;SDS011;24840;47.508;19.376;2024-01-15T10:52:38;12.70;;;6.77;;
39094;SDS011;24840;47.508;19.376;2024-01-15T10:55:08;11.40;;;6.83;;
39094;SDS011;24840;47.508;19.376;2024-01-15T10:57:35;11.47;;;7.40;;
39094;SDS011;24840;47.508;19.376;2024-01-15T11:00:01;12.25;;;6.45;;
39094;SDS011;24840;47.508;19.376;2024-01-15T11:02:30;10.98;;;7.13;;
39094;SDS011;24840;47.508;19.376;2024-01-15T11:04:57;11.55;;;6.90;;
39094;SDS011;24840;47.508;19.376;2024-01-15T11:07:24;9.37;;;6.20;;
39094;SDS011;24840;47.508;19.376;2024-01-15T11:09:50;12.05;;;6.30;;
39094;SDS011;24840;47.508;19.376;2024-01-15T11:12:16;13.30;;;7.13;;
39094;SDS011;24840;47.508;19.376;2024-01-15T11:14:46;10.75;;;6.88;;
39094;SDS011;24840;47.508;19.376;2024-01-15T11:17:13;10.25;;;6.40;;
39094;SDS011;24840;47.508;19.376;2024-01-15T11:19:46;10.03;;;6.30;;
39094;SDS011;24840;47.508;19.376;2024-01-15T11:25:13;11.70;;;5.90;;
39094;SDS011;24840;47.508;19.376;2024-01-15T11:30:09;11.43;;;6.37;;
39094;SDS011;24840;47.508;19.376;2024-01-15T11:32:36;9.10;;;6.63;;
39094;SDS011;24840;47.508;19.376;2024-01-15T11:35:02;10.30;;;6.33;;
39094;SDS011;24840;47.508;19.376;2024-01-15T11:38:13;9.20;;;5.33;;
39094;SDS011;24840;47.508;19.376;2024-01-15T11:40:15;10.37;;;5.67;;
39094;SDS011;24840;47.508;19.376;2024-01-15T11:42:43;7.60;;;4.80;;
39094;SDS011;24840;47.508;19.376;2024-01-15T11:45:10;9.50;;;6.03;;
39094;SDS011;24840;47.508;19.376;2024-01-15T11:50:21;7.90;;;4.53;;
39094;SDS011;24840;47.508;19.376;2024-01-15T11:53:07;10.37;;;6.07;;
39094;SDS011;24840;47.508;19.376;2024-01-15T11:55:35;13.00;;;5.45;;
39094;SDS011;24840;47.508;19.376;2024-01-15T11:58:01;13.13;;;5.85;;
39094;SDS011;24840;47.508;19.376;2024-01-15T12:00:28;10.07;;;5.40;;
39094;SDS011;24840;47.508;19.376;2024-01-15T12:02:54;8.50;;;5.35;;
39094;SDS011;24840;47.508;19.376;2024-01-15T12:05:22;9.90;;;6.95;;
39094;SDS011;24840;47.508;19.376;2024-01-15T12:07:49;7.75;;;5.25;;
39094;SDS011;24840;47.508;19.376;2024-01-15T12:10:18;11.32;;;6.50;;
39094;SDS011;24840;47.508;19.376;2024-01-15T12:15:27;8.13;;;5.57;;
39094;SDS011;24840;47.508;19.376;2024-01-15T12:17:57;9.50;;;6.78;;
39094;SDS011;24840;47.508;19.376;2024-01-15T12:20:24;12.38;;;6.50;;
39094;SDS011;24840;47.508;19.376;2024-01-15T12:22:50;11.13;;;7.10;;
39094;SDS011;24840;47.508;19.376;2024-01-15T12:25:16;14.75;;;8.20;;
39094;SDS011;24840;47.508;19.376;2024-01-15T12:27:42;13.95;;;7.40;;
39094;SDS011;24840;47.508;19.376;2024-01-15T12:30:12;14.85;;;6.38;;
39094;SDS011;24840;47.508;19.376;2024-01-15T12:32:40;12.57;;;6.68;;
39094;SDS011;24840;47.508;19.376;2024-01-15T12:35:07;10.60;;;5.35;;
39094;SDS011;24840;47.508;19.376;2024-01-15T12:37:35;7.43;;;4.25;;
39094;SDS011;24840;47.508;19.376;2024-01-15T12:40:02;4.85;;;3.75;;
39094;SDS011;24840;47.508;19.376;2024-01-15T12:42:29;13.45;;;5.15;;
39094;SDS011;24840;47.508;19.376;2024-01-15T12:44:58;7.78;;;4.55;;
39094;SDS011;24840;47.508;19.376;2024-01-15T12:47:25;8.00;;;4.47;;
39094;SDS011;24840;47.508;19.376;2024-01-15T12:49:52;7.57;;;4.30;;
39094;SDS011;24840;47.508;19.376;2024-01-15T12:52:21;7.05;;;3.72;;
39094;SDS011;24840;47.508;19.376;2024-01-15T12:54:48;14.30;;;4.60;;
39094;SDS011;24840;47.508;19.376;2024-01-15T12:57:14;4.78;;;3.30;;
39094;SDS011;24840;47.508;19.376;2024-01-15T12:59:40;6.53;;;3.25;;
39094;SDS011;24840;47.508;19.376;2024-01-15T13:02:06;6.82;;;3.35;;
39094;SDS011;24840;47.508;19.376;2024-01-15T13:04:32;6.13;;;3.80;;
39094;SDS011;24840;47.508;19.376;2024-01-15T13:06:58;5.65;;;3.67;;
39094;SDS011;24840;47.508;19.376;2024-01-15T13:09:24;6.57;;;3.65;;
39094;SDS011;24840;47.508;19.376;2024-01-15T13:11:50;11.05;;;3.53;;
39094;SDS011;24840;47.508;19.376;2024-01-15T13:14:17;6.40;;;3.72;;
39094;SDS011;24840;47.508;19.376;2024-01-15T13:16:43;5.95;;;3.22;;
39094;SDS011;24840;47.508;19.376;2024-01-15T13:19:09;10.30;;;3.50;;
39094;SDS011;24840;47.508;19.376;2024-01-15T13:21:39;9.38;;;3.97;;
39094;SDS011;24840;47.508;19.376;2024-01-15T13:24:06;5.47;;;2.90;;
39094;SDS011;24840;47.508;19.376;2024-01-15T13:26:32;6.30;;;2.97;;
39094;SDS011;24840;47.508;19.376;2024-01-15T13:29:01;5.15;;;3.65;;
39094;SDS011;24840;47.508;19.376;2024-01-15T13:31:28;8.40;;;5.35;;
39094;SDS011;24840;47.508;19.376;2024-01-15T13:33:54;6.22;;;3.50;;
39094;SDS011;24840;47.508;19.376;2024-01-15T13:36:21;7.22;;;3.40;;
39094;SDS011;24840;47.508;19.376;2024-01-15T13:38:48;5.38;;;3.35;;
39094;SDS011;24840;47.508;19.376;2024-01-15T13:41:14;4.60;;;3.47;;
39094;SDS011;24840;47.508;19.376;2024-01-15T13:43:40;4.93;;;3.08;;
39094;SDS011;24840;47.508;19.376;2024-01-15T13:46:06;7.57;;;4.50;;
39094;SDS011;24840;47.508;19.376;2024-01-15T13:48:32;6.93;;;3.10;;
39094;SDS011;24840;47.508;19.376;2024-01-15T13:50:58;7.78;;;3.63;;
39094;SDS011;24840;47.508;19.376;2024-01-15T13:53:24;6.82;;;3.85;;
39094;SDS011;24840;47.508;19.376;2024-01-15T13:55:51;8.68;;;4.20;;
39094;SDS011;24840;47.508;19.376;2024-01-15T13:58:17;5.75;;;4.10;;
39094;SDS011;24840;47.508;19.376;2024-01-15T14:00:43;6.32;;;3.55;;
39094;SDS011;24840;47.508;19.376;2024-01-15T14:03:09;4.13;;;2.97;;
39094;SDS011;24840;47.508;19.376;2024-01-15T14:05:35;7.15;;;4.13;;
39094;SDS011;24840;47.508;19.376;2024-01-15T14:08:01;9.55;;;4.30;;
39094;SDS011;24840;47.508;19.376;2024-01-15T14:10:28;7.70;;;3.63;;
39094;SDS011;24840;47.508;19.376;2024-01-15T14:12:54;5.53;;;3.80;;
39094;SDS011;24840;47.508;19.376;2024-01-15T14:15:20;5.68;;;4.00;;
39094;SDS011;24840;47.508;19.376;2024-01-15T14:17:47;8.55;;;4.40;;
39094;SDS011;24840;47.508;19.376;2024-01-15T14:20:13;5.15;;;3.50;;